Flight Track Log - Related Links

Times and Time Zones

All times are in EDT time to prevent confusion due to time zone crossing. See the N5180A flight status page for this flight to view local times or setup timezone preferences in your user account.

Time Position Orientation Groundspeed Altitude Reporting Facility
EDT Latitude Longitude Course Direction KTS MPH feet Rate Location/Type
Wed 03:22:02 PM 39.1000 -94.6000 303° West 60 69 1,200  Level Kansas City TRACON
Wed 03:23:14 PM 39.1167 -94.6333 303° West 70 81 1,700 435 Climbing Kansas City TRACON
Wed 03:24:06 PM 39.1300 -94.6464 323° Northwest 72 83 2,100 310 Climbing Kansas City Center
Wed 03:25:10 PM 39.1356 -94.6711 286° West 75 86 2,300 192 Climbing Kansas City Center
Wed 03:26:11 PM 39.1411 -94.6942 287° West 72 83 2,500 96 Climbing Kansas City Center
Wed 03:27:15 PM 39.1486 -94.7275 286° West 85 98 2,500  Level Kansas City Center
Wed 03:28:15 PM 39.1575 -94.7553 292° West 88 101 2,500  Level Kansas City Center
Wed 03:29:19 PM 39.1708 -94.7853 300° West 86 99 2,500 48 Level Kansas City Center
Wed 03:30:20 PM 39.1794 -94.8136 291° West 88 101 2,600 148 Climbing Kansas City Center
Wed 03:31:21 PM 39.1894 -94.8481 291° West 92 106 2,800 48 Climbing Kansas City Center
Wed 03:32:24 PM 39.1992 -94.8783 293° West 95 109 2,700 -194 Descending Kansas City Center
Wed 03:33:25 PM 39.2228 -94.8981 327° Northwest 92 106 2,400 -97 Descending Kansas City Center
Wed 03:34:28 PM 39.2456 -94.9111 336° Northwest 93 107 2,500 95 Climbing Kansas City Center
Wed 03:35:31 PM 39.2717 -94.9222 342° North 87 100 2,600 145 Climbing Kansas City Center
Wed 03:36:32 PM 39.2939 -94.9322 341° North 89 102 2,800 97 Climbing Kansas City Center
Wed 03:37:35 PM 39.3211 -94.9458 339° North 92 106 2,800 -97 Level Kansas City Center
Wed 03:38:36 PM 39.3467 -94.9561 343° North 100 115 2,600 -148 Descending Kansas City Center
Wed 03:39:37 PM 39.3750 -94.9686 341° North 98 113 2,500 -48 Descending Kansas City Center
Wed 03:40:41 PM 39.3975 -94.9794 340° North 91 105 2,500  Level Kansas City Center
Wed 03:41:41 PM 39.4247 -94.9911 342° North 93 107 2,500  Level Kansas City Center
Wed 03:42:46 PM 39.4461 -95.0100 326° Northwest 97 112 2,500  Level Kansas City Center
Wed 03:43:46 PM 39.4700 -95.0336 323° Northwest 98 113 2,500  Level Kansas City Center
Wed 03:44:48 PM 39.4900 -95.0525 324° Northwest 96 110 2,500 -48 Level Kansas City Center
Wed 03:45:51 PM 39.5119 -95.0761 320° Northwest 93 107 2,400 -48 Descending Kansas City Center
Wed 03:46:52 PM 39.5311 -95.0942 324° Northwest 91 105 2,400 48 Level Kansas City Center
Wed 03:47:55 PM 39.5594 -95.0981 354° North 91 105 2,500 96 Climbing Kansas City Center
Wed 03:48:57 PM 39.5817 -95.0828 28° Northeast 91 105 2,600  Climbing Kansas City Center
Wed 03:49:57 PM 39.6036 -95.0672 29° Northeast 94 108 2,500  Descending Kansas City Center
Wed 03:51:01 PM 39.6281 -95.0506 28° Northeast 90 104 2,600 144 Climbing Kansas City Center
Wed 03:52:02 PM 39.6500 -95.0358 27° Northeast 92 106 2,800  Climbing Kansas City Center
Wed 03:53:04 PM 39.6736 -95.0122 38° Northeast 96 110 2,600 -143 Descending Kansas City Center
Wed 03:54:08 PM 39.6933 -94.9931 37° Northeast 94 108 2,500 -48 Descending Kansas City Center
Wed 03:55:08 PM 39.7097 -94.9622 55° Northeast 92 106 2,500  Level Kansas City Center
Wed 03:56:12 PM 39.7136 -94.9328 80° East 88 101 2,500 96 Level Kansas City Center
Wed 03:57:13 PM 39.7147 -94.8989 88° East 85 98 2,700 98 Climbing Kansas City Center
Wed 03:58:14 PM 39.7194 -94.8706 78° East 84 97 2,700 -48 Level Kansas City Center
Wed 03:59:18 PM 39.7406 -94.8464 41° Northeast 93 107 2,600 -48 Descending Kansas City Center
Wed 04:00:18 PM 39.7656 -94.8450 North 96 110 2,600 144 Level Kansas City Center
Wed 04:01:23 PM 39.7903 -94.8486 354° North 82 94 2,900 288 Climbing Kansas City Center
Wed 04:02:23 PM 39.8086 -94.8600 334° Northwest 75 86 3,200 293 Climbing Kansas City Center
Wed 04:03:26 PM 39.8311 -94.8689 343° North 75 86 3,500 49 Climbing Kansas City Center
Wed 04:04:26 PM 39.8506 -94.8861 326° Northwest 88 101 3,300 -290 Descending Kansas City Center
Wed 04:05:30 PM 39.8714 -94.9136 315° West 93 107 2,900 -339 Descending Kansas City Center
Wed 04:06:30 PM 39.8844 -94.9422 301° West 95 109 2,600 -194 Descending Kansas City Center
Wed 04:07:34 PM 39.8911 -94.9717 286° West 91 105 2,500  Descending Kansas City Center
Wed 04:08:35 PM 39.8917 -95.0086 271° West 91 105 2,600  Climbing Kansas City Center
Wed 04:09:39 PM 39.8844 -95.0403 253° West 94 108 2,500 -97 Descending Kansas City Center
Wed 04:10:39 PM 39.8775 -95.0756 256° West 92 106 2,400  Descending Kansas City Center
Wed 04:11:43 PM 39.8808 -95.1078 278° West 94 108 2,500 48 Climbing Kansas City Center
Wed 04:12:43 PM 39.8919 -95.1417 293° West 93 107 2,500 49 Level Kansas City Center
Wed 04:13:46 PM 39.9044 -95.1683 301° West 91 105 2,600 48 Climbing Kansas City Center
Wed 04:14:47 PM 39.9192 -95.1997 301° West 91 105 2,600  Level Kansas City Center
Wed 04:15:51 PM 39.9344 -95.2258 307° West 94 108 2,600  Level Kansas City Center

Login

Don't have an account? Register now (free) for customized features, flight alerts, and more!